Latest Weather Observations for Coldstream

IDV60801

Issued at 5:02 pm EDT Wednesday 22 February 2017 (issued every 30 minutes, with the page automatically refreshed every 10 minutes)

About weather observations | Map of weather stations | Latest weather observations for VIC | Other Formats
Station Details ID: 086383 Name: COLDSTREAM Lat: -37.72 Lon: 145.41 Height: 83.0 m
Data from the previous 72 hours. | See also: Recent months at Coldstream
Date/Time
EDT
Temp
°C
App
Temp
°C
Dew
Point
°C
Rel
Hum
%
Delta-T
°C
Wind Press
QNH
hPa
Press
MSL
hPa
Rain since
9am
mm
Dir  Spd
km/h
Gust
km/h
Spd
kts
Gust
kts
22/04:34pm 32.1 25.6 4.8 18 14.4 N 28 46 15 25 1009.8 1009.6 0.0
22/04:30pm 31.9 24.5 3.8 17 14.6 NNE 32 46 17 25 1009.8 1009.6 0.0
22/04:11pm 32.3 25.7 4.2 17 14.7 N 28 46 15 25 1010.0 1009.8 0.0
22/04:00pm 31.7 24.6 5.3 19 14.0 N 32 48 17 26 1010.1 1009.9 0.0
22/03:30pm 31.3 24.8 4.9 19 13.9 N 28 43 15 23 1011.0 1010.8 0.0
22/03:09pm 31.3 24.8 6.4 21 13.4 N 30 48 16 26 1011.3 1011.1 0.0
22/03:00pm 31.0 24.6 6.8 22 13.1 N 30 46 16 25 1011.5 1011.3 0.0
22/02:38pm 30.7 24.7 7.2 23 12.8 NNE 28 46 15 25 1012.0 1011.8 0.0
22/02:30pm 30.1 24.4 6.7 23 12.6 N 26 39 14 21 1012.3 1012.1 0.0
22/02:11pm 30.4 24.5 7.6 24 12.5 NNE 28 46 15 25 1012.7 1012.5 0.0
22/02:00pm 29.7 24.3 6.4 23 12.4 N 24 37 13 20 1013.0 1012.8 0.0
22/01:30pm 29.9 23.4 6.5 23 12.5 N 30 50 16 27 1013.2 1013.0 0.0
22/01:27pm 29.4 22.9 4.8 21 12.8 N 28 50 15 27 1013.2 1013.0 0.0
22/01:00pm 28.5 23.0 7.7 27 11.3 N 26 43 14 23 1013.8 1013.6 0.0
22/12:30pm 28.2 22.5 8.5 29 10.8 N 28 46 15 25 1014.5 1014.2 0.0
22/12:28pm 27.5 21.4 6.8 27 11.0 N 28 46 15 25 1014.4 1014.1 0.0
22/12:00pm 27.2 24.2 7.6 29 10.5 NNE 13 26 7 14 1014.8 1014.5 0.0
22/11:30am 25.8 23.4 6.9 30 9.9 N 9 17 5 9 1015.4 1015.1 0.0
22/11:00am 25.0 22.2 8.5 35 8.9 N 13 19 7 10 1015.5 1015.2 0.0
22/10:30am 23.6 21.1 8.1 37 8.2 N 11 17 6 9 1015.8 1015.5 0.0
22/10:00am 21.7 19.9 9.3 45 6.6 NE 9 15 5 8 1016.0 1015.7 0.0
22/09:30am 19.8 18.7 10.5 55 5.0 E 7 11 4 6 1016.1 1015.8 0.0
22/09:00am 17.1 15.8 9.8 62 3.8 ESE 7 11 4 6 1016.4 1016.1 0.0
22/08:30am 14.7 13.9 11.1 79 1.9 SSE 6 9 3 5 1016.4 1016.1 0.0
22/08:00am 12.3 12.5 10.7 90 0.8 CALM 0 7 0 4 1016.5 1016.2 0.0
22/07:30am 10.3 8.9 9.7 96 0.3 ESE 7 13 4 7 1016.4 1016.1 0.0
22/07:00am 9.2 8.5 8.7 97 0.2 SSW 2 7 1 4 1016.3 1016.0 0.0
22/06:30am 8.8 8.5 8.5 98 0.1 CALM 0 0 0 0 1016.1 1015.8 0.0
22/06:00am 9.5 8.1 9.4 99 0.0 SE 7 11 4 6 1015.9 1015.6 0.0
22/05:30am 7.8 5.9 7.5 98 0.1 SE 7 9 4 5 1016.0 1015.7 0.0
22/05:00am 7.2 6.5 6.9 98 0.1 CALM 0 0 0 0 1016.2 1015.9 0.0
22/04:30am 7.0 6.2 6.6 97 0.2 CALM 0 0 0 0 1016.3 1016.0 0.0
22/04:00am 7.3 6.6 6.9 97 0.2 CALM 0 0 0 0 1016.6 1016.3 0.0
22/03:30am 7.4 6.7 7.0 97 0.2 CALM 0 0 0 0 1016.9 1016.6 0.0
22/03:00am 8.1 7.6 7.7 97 0.2 CALM 0 0 0 0 1017.2 1016.9 0.0
22/02:30am 8.4 7.9 7.8 96 0.3 CALM 0 0 0 0 1017.3 1017.0 0.0
22/02:00am 9.1 8.4 8.5 96 0.3 NNW 2 6 1 3 1017.6 1017.3 0.0
22/01:30am 9.6 9.3 8.8 95 0.4 CALM 0 0 0 0 1017.9 1017.6 0.0
22/01:00am 10.3 10.1 9.2 93 0.5 CALM 0 0 0 0 1018.0 1017.7 0.0
22/12:30am 10.3 10.0 8.7 90 0.8 CALM 0 0 0 0 1018.3 1018.0 0.0
22/12:00am 11.7 11.6 9.6 87 1.1 CALM 0 0 0 0 1018.4 1018.1 0.0
 
Date/Time
EDT
Temp
°C
App
Temp
°C
Dew
Point
°C
Rel
Hum
%
Delta-T
°C
Wind Press
QNH
hPa
Press
MSL
hPa
Rain since
9am
mm
Dir  Spd
km/h
Gust
km/h
Spd
kts
Gust
kts
21/11:30pm 13.2 13.4 10.6 84 1.4 CALM 0 6 0 3 1018.6 1018.3 0.0
21/11:00pm 14.9 14.5 11.1 78 2.0 ESE 4 9 2 5 1018.5 1018.2 0.0
21/10:30pm 15.6 13.5 11.2 75 2.4 SE 13 19 7 10 1018.6 1018.3 0.0
21/10:00pm 16.7 15.0 11.2 70 3.0 SE 11 17 6 9 1018.6 1018.3 0.0
21/09:30pm 17.1 14.3 11.2 68 3.2 SE 17 22 9 12 1018.3 1018.0 0.0
21/09:00pm 17.9 14.7 11.2 65 3.6 SE 19 28 10 15 1018.0 1017.7 0.0
21/08:30pm 18.8 15.9 10.9 60 4.3 SSE 17 24 9 13 1018.0 1017.7 0.0
21/08:00pm 20.1 16.5 6.8 42 6.7 SE 15 26 8 14 1017.7 1017.4 0.0
21/07:30pm 21.7 18.9 6.8 38 7.6 SE 11 17 6 9 1017.8 1017.5 0.0
21/07:00pm 23.2 19.8 6.1 33 8.7 SE 13 19 7 10 1017.6 1017.3 0.0
21/06:30pm 23.8 20.9 4.7 29 9.5 SE 9 13 5 7 1017.5 1017.2 0.0
21/06:00pm 24.2 21.9 4.6 28 9.8 SE 6 13 3 7 1017.4 1017.1 0.0
21/05:30pm 24.0 21.0 3.9 27 9.9 ESE 9 19 5 10 1017.8 1017.5 0.0
21/05:00pm 23.8 21.1 3.7 27 9.8 SSW 7 13 4 7 1018.2 1017.9 0.0
21/04:30pm 24.2 22.0 5.5 30 9.5 WSW 6 7 3 4 1018.4 1018.1 0.0
21/04:00pm 22.9 19.9 5.8 33 8.6 SSE 11 19 6 10 1018.8 1018.5 0.0
21/03:30pm 22.7 20.6 5.6 33 8.6 SSW 6 15 3 8 1019.2 1018.9 0.0
21/03:00pm 22.0 19.3 5.4 34 8.3 NE 9 15 5 8 1019.4 1019.1 0.0
21/02:30pm 21.5 18.5 4.1 32 8.5 N 9 13 5 7 1020.0 1019.8 0.0
21/02:00pm 21.6 19.4 6.3 37 7.7 SW 7 15 4 8 1020.4 1020.2 0.0
21/01:30pm 20.5 18.1 6.8 41 7.0 WNW 9 17 5 9 1020.6 1020.4 0.0
21/01:00pm 20.2 17.8 6.9 42 6.7 W 9 19 5 10 1021.1 1020.9 0.0
21/12:30pm 19.9 18.3 7.9 46 6.2 NW 6 13 3 7 1021.4 1021.2 0.0
21/12:00pm 18.7 17.3 7.2 47 5.8 NNE 4 9 2 5 1021.5 1021.3 0.0
21/11:30am 17.6 16.0 7.9 53 4.9 WSW 6 9 3 5 1021.7 1021.5 0.0
21/11:00am 17.3 15.8 9.2 59 4.2 NW 7 11 4 6 1022.0 1021.8 0.0
21/10:30am 16.2 15.4 9.6 65 3.4 WNW 4 9 2 5 1022.2 1022.0 0.0
21/10:00am 15.6 15.4 10.6 72 2.6 SE 2 7 1 4 1022.2 1022.0 0.0
21/09:30am 14.3 15.0 12.2 87 1.1 CALM 0 4 0 2 1022.1 1021.9 0.0
21/09:00am 12.2 12.8 12.0 99 0.1 CALM 0 0 0 0 1021.9 1021.7 0.2
21/08:30am 10.0 10.0 9.9 99 0.1 CALM 0 0 0 0 1021.6 1021.4 0.2
21/08:00am 8.7 8.4 8.6 99 0.0 CALM 0 0 0 0 1021.3 1021.1 0.2
21/07:30am 5.5 4.5 5.4 99 0.0 CALM 0 0 0 0 1020.9 1020.7 0.2
21/07:00am 4.7 3.5 4.4 98 0.1 CALM 0 6 0 3 1020.4 1020.2 0.2
21/06:30am 4.9 3.3 4.6 98 0.1 S 2 6 1 3 1020.1 1019.9 0.2
21/06:00am 5.3 4.2 5.0 98 0.1 CALM 0 0 0 0 1019.8 1019.6 0.2
21/05:30am 5.7 3.9 5.4 98 0.1 S 4 7 2 4 1019.7 1019.5 0.2
21/05:00am 6.0 5.0 5.6 97 0.2 CALM 0 0 0 0 1019.6 1019.4 0.2
21/04:30am 6.1 4.7 5.7 97 0.2 S 2 7 1 4 1019.4 1019.1 0.2
21/04:00am 6.4 5.4 5.8 96 0.3 CALM 0 0 0 0 1019.3 1019.0 0.2
21/03:30am 7.0 6.2 6.4 96 0.3 CALM 0 0 0 0 1019.2 1018.9 0.2
21/03:00am 8.0 7.4 7.2 95 0.4 CALM 0 0 0 0 1018.9 1018.6 0.2
21/02:30am 8.4 7.8 7.5 94 0.4 CALM 0 0 0 0 1018.9 1018.6 0.2
21/02:00am 10.3 10.2 9.4 94 0.4 CALM 0 0 0 0 1018.9 1018.6 0.2
21/01:30am 11.4 11.6 10.5 94 0.5 CALM 0 0 0 0 1019.0 1018.7 0.2
21/01:00am 11.6 10.7 10.7 94 0.5 ESE 6 7 3 4 1019.2 1018.9 0.2
21/12:30am 10.9 10.5 9.8 93 0.6 SW 2 7 1 4 1019.2 1018.9 0.2
21/12:00am 11.1 11.2 10.0 93 0.6 CALM 0 6 0 3 1018.9 1018.6 0.2
 
Date/Time
EDT
Temp
°C
App
Temp
°C
Dew
Point
°C
Rel
Hum
%
Delta-T
°C
Wind Press
QNH
hPa
Press
MSL
hPa
Rain since
9am
mm
Dir  Spd
km/h
Gust
km/h
Spd
kts
Gust
kts
20/11:30pm 11.3 11.4 10.2 93 0.6 CALM 0 2 0 1 1019.0 1018.7 0.2
20/11:00pm 10.9 10.1 9.7 92 0.6 SSW 4 9 2 5 1018.9 1018.6 0.2
20/10:30pm 10.8 10.7 9.4 91 0.7 CALM 0 0 0 0 1018.7 1018.4 0.2
20/10:00pm 10.8 10.6 8.9 88 0.9 CALM 0 0 0 0 1018.4 1018.1 0.2
20/09:30pm 11.3 10.9 8.2 81 1.5 CALM 0 0 0 0 1018.0 1017.7 0.2
20/09:00pm 12.9 12.5 8.2 73 2.3 CALM 0 6 0 3 1017.4 1017.1 0.2
20/08:30pm 14.9 13.3 8.6 66 3.2 SSW 7 11 4 6 1016.9 1016.6 0.2
20/08:00pm 15.8 13.1 9.0 64 3.5 SW 13 22 7 12 1016.5 1016.2 0.2
20/07:30pm 17.0 14.8 9.2 60 4.1 SSW 11 17 6 9 1016.0 1015.7 0.2
20/07:00pm 17.6 15.4 9.2 58 4.4 SSW 11 20 6 11 1015.6 1015.3 0.2
20/06:30pm 18.1 14.6 8.9 55 4.8 SW 17 26 9 14 1015.2 1014.9 0.2
20/06:00pm 18.7 15.6 8.7 52 5.2 SSW 15 26 8 14 1014.8 1014.5 0.2
20/05:30pm 19.3 16.0 9.5 53 5.2 SSW 17 30 9 16 1014.5 1014.2 0.2
20/05:00pm 19.3 15.6 9.5 53 5.2 SSW 19 30 10 16 1013.9 1013.7 0.2
20/04:30pm 18.8 15.5 9.6 55 4.9 SW 17 30 9 16 1013.6 1013.4 0.2
20/04:00pm 18.6 15.4 9.9 57 4.6 SSW 17 32 9 17 1013.4 1013.2 0.2
20/03:30pm 19.8 17.7 12.3 62 4.2 SSW 15 26 8 14 1013.3 1013.1 0.2
20/03:00pm 18.9 15.3 9.7 55 4.9 SW 19 30 10 16 1013.3 1013.1 0.2
20/02:30pm 17.4 13.7 9.3 59 4.2 SSW 19 37 10 20 1013.4 1013.2 0.2
20/02:00pm 18.7 15.8 9.8 56 4.7 SSW 15 26 8 14 1013.3 1013.1 0.2
20/01:30pm 17.3 13.5 9.0 58 4.3 SSW 19 33 10 18 1013.5 1013.3 0.2
20/01:00pm 18.1 12.5 8.9 55 4.8 WSW 28 41 15 22 1013.2 1013.0 0.2
20/12:30pm 17.3 12.2 9.2 59 4.2 WSW 26 39 14 21 1013.3 1013.1 0.2
20/12:00pm 18.0 14.2 11.1 64 3.8 W 22 32 12 17 1013.3 1013.1 0.2
20/11:30am 15.9 12.9 11.9 77 2.2 WSW 19 30 10 16 1013.6 1013.4 0.2
20/11:00am 15.2 11.2 10.4 73 2.5 W 22 30 12 16 1013.6 1013.4 0.0
20/10:30am 14.0 10.3 9.6 75 2.3 WNW 19 28 10 15 1013.4 1013.2 0.0
20/10:00am 13.2 10.7 9.8 80 1.8 WNW 13 22 7 12 1013.3 1013.1 0.0
20/09:30am 12.3 10.2 9.9 85 1.2 WNW 11 17 6 9 1013.1 1012.9 0.0
20/09:00am 11.9 10.3 10.1 89 0.9 WNW 9 15 5 8 1012.7 1012.5 10.6
20/08:30am 11.5 10.3 9.6 88 1.0 WNW 6 13 3 7 1012.4 1012.2 10.2
20/08:00am 10.9 9.5 9.5 91 0.7 NW 7 9 4 5 1012.1 1011.9 10.2
20/07:30am 10.7 8.8 9.0 89 0.8 NW 9 15 5 8 1011.5 1011.3 10.0
20/07:00am 10.9 9.0 9.0 88 0.9 WNW 9 15 5 8 1011.5 1011.3 9.4
20/06:30am 10.9 8.5 8.8 87 1.0 WNW 11 17 6 9 1011.1 1010.9 9.0
20/06:00am 10.7 8.8 9.0 89 0.8 NNW 9 13 5 7 1010.8 1010.6 9.0
20/05:30am 10.5 9.0 9.1 91 0.7 N 7 11 4 6 1010.6 1010.4 9.0
20/05:00am 10.2 8.7 9.0 92 0.6 N 7 11 4 6 1010.5 1010.3 9.0
20/04:30am 10.1 9.5 9.0 93 0.5 NNE 2 7 1 4 1010.4 1010.2 8.8
20/04:00am 10.0 9.3 8.6 91 0.7 NE 2 7 1 4 1010.5 1010.3 8.8
20/03:30am 10.1 9.7 8.4 89 0.8 CALM 0 0 0 0 1010.6 1010.4 8.2
20/03:00am 10.0 9.2 8.3 89 0.8 NNW 2 11 1 6 1010.6 1010.4 7.6
20/02:30am 10.3 8.5 8.1 86 1.1 NW 7 17 4 9 1010.5 1010.3 7.2
20/02:00am 10.3 8.4 7.7 84 1.3 NNW 7 11 4 6 1010.6 1010.4 7.0
20/01:30am 10.2 8.4 8.0 86 1.1 N 7 11 4 6 1010.7 1010.5 7.0
20/01:00am 10.3 9.5 8.2 87 1.0 N 2 6 1 3 1010.8 1010.6 7.0
20/12:30am 10.4 8.9 8.3 87 1.0 N 6 7 3 4 1010.9 1010.7 6.8
20/12:00am 10.4 8.9 8.5 88 0.9 NNW 6 7 3 4 1010.9 1010.7 6.8
 
Date/Time
EDT
Temp
°C
App
Temp
°C
Dew
Point
°C
Rel
Hum
%
Delta-T
°C
Wind Press
QNH
hPa
Press
MSL
hPa
Rain since
9am
mm
Dir  Spd
km/h
Gust
km/h
Spd
kts
Gust
kts
19/11:30pm 10.2 8.7 8.6 90 0.8 N 6 9 3 5 1010.9 1010.7 6.6
19/11:00pm 10.4 9.0 8.7 89 0.8 N 6 7 3 4 1011.1 1010.9 6.6
19/10:30pm 9.7 8.9 8.3 91 0.7 WNW 2 7 1 4 1010.9 1010.7 6.2
19/10:00pm 9.0 8.4 7.3 89 0.8 CALM 0 0 0 0 1010.9 1010.7 6.0
19/09:30pm 10.1 9.5 7.2 82 1.4 CALM 0 0 0 0 1010.7 1010.5 6.0
19/09:00pm 10.9 9.1 7.0 77 1.9 WNW 6 9 3 5 1010.3 1010.1 6.0
19/08:30pm 11.5 9.1 7.0 74 2.2 W 9 15 5 8 1010.0 1009.8 6.0
19/08:00pm 12.9 8.9 6.7 66 3.0 W 17 24 9 13 1009.8 1009.6 6.0
19/07:30pm 13.1 9.2 6.9 66 3.0 WSW 17 30 9 16 1009.4 1009.2 6.0
19/07:00pm 12.9 11.0 9.0 77 2.0 SSE 9 17 5 9 1008.9 1008.6 6.0
19/06:30pm 12.7 9.2 8.6 76 2.1 WSW 17 28 9 15 1008.8 1008.5 6.0
19/06:00pm 14.3 12.3 8.5 68 2.9 NNW 9 17 5 9 1008.3 1008.0 5.8
19/05:30pm 13.9 11.9 10.1 78 2.0 WNW 11 17 6 9 1008.5 1008.2 5.8

Other Formats:

Comma delimited format used in spreadsheet applications
http://www.bom.gov.au/fwo/IDV60801/IDV60801.94864.axf

JavaScript Object Notation format (JSON) in row-major order
http://www.bom.gov.au/fwo/IDV60801/IDV60801.94864.json